Time;durP1;ratioP1;P1;durP2;ratioP2;P2;SDS_P1;SDS_P2;PMS_P1;PMS_P2;Temp;Humidity;BMP_temperature;BMP_pressure;BME280_temperature;BME280_humidity;BME280_pressure;Samples;Min_cycle;Max_cycle;Signal;HPM_P1;HPM_P2
2024/01/13 00:01:53;;;;;;;19.02;8.52;;;;;;;3.02;100.00;101585.66;5204566;28;20033;-74
2024/01/13 00:04:24;;;;;;;15.80;8.18;;;;;;;3.07;100.00;101589.16;5210903;28;20490;-74
2024/01/13 00:06:54;;;;;;;18.38;8.32;;;;;;;2.98;100.00;101574.44;5200877;28;20039;-74
2024/01/13 00:09:24;;;;;;;18.50;8.60;;;;;;;3.02;100.00;101578.78;5204890;28;20106;-73
2024/01/13 00:11:55;;;;;;;16.27;8.30;;;;;;;2.97;100.00;101571.81;5201285;28;20041;-74
2024/01/13 00:14:25;;;;;;;15.48;8.00;;;;;;;3.03;100.00;101565.00;5203653;28;20075;-74
2024/01/13 00:16:55;;;;;;;15.80;8.38;;;;;;;3.00;100.00;101571.88;5201333;28;20021;-74
2024/01/13 00:19:26;;;;;;;17.02;8.48;;;;;;;2.97;100.00;101572.69;5207647;28;20163;-74
2024/01/13 00:21:56;;;;;;;15.57;8.45;;;;;;;3.02;100.00;101575.34;5200901;28;20398;-74
2024/01/13 00:24:26;;;;;;;17.48;7.55;;;;;;;2.99;100.00;101573.59;5208694;28;20035;-74
2024/01/13 00:26:56;;;;;;;15.27;8.10;;;;;;;2.98;100.00;101568.38;5208473;28;20029;-74
2024/01/13 00:29:27;;;;;;;18.33;8.60;;;;;;;3.13;100.00;101563.38;5203222;28;20031;-74
2024/01/13 00:31:57;;;;;;;16.42;8.27;;;;;;;2.96;100.00;101562.34;5205891;28;20394;-74
2024/01/13 00:34:28;;;;;;;15.35;7.43;;;;;;;2.86;100.00;101547.63;5207187;28;20398;-74
2024/01/13 00:36:58;;;;;;;15.80;8.15;;;;;;;2.97;100.00;101549.47;5204168;28;20033;-74
2024/01/13 00:39:28;;;;;;;13.65;7.75;;;;;;;2.93;100.00;101558.03;5213324;28;20502;-74
2024/01/13 00:41:58;;;;;;;15.45;7.47;;;;;;;2.92;100.00;101550.25;5207402;28;20095;-74
2024/01/13 00:44:29;;;;;;;18.25;7.82;;;;;;;2.95;100.00;101547.72;5209449;28;20064;-73
2024/01/13 00:46:59;;;;;;;16.52;7.70;;;;;;;2.99;100.00;101544.34;5207500;28;20026;-74
2024/01/13 00:49:29;;;;;;;15.30;7.72;;;;;;;2.90;100.00;101541.63;5199767;28;20087;-74
2024/01/13 00:52:00;;;;;;;17.27;8.15;;;;;;;2.94;100.00;101538.22;5199408;28;20055;-74
2024/01/13 00:54:30;;;;;;;16.15;7.13;;;;;;;2.97;100.00;101536.56;5202477;28;20371;-74
2024/01/13 00:57:00;;;;;;;16.33;8.20;;;;;;;2.91;100.00;101545.97;5202753;28;20427;-74
2024/01/13 00:59:30;;;;;;;18.15;8.50;;;;;;;2.96;100.00;101544.28;5208611;28;20102;-74
2024/01/13 01:02:01;;;;;;;19.30;9.23;;;;;;;2.91;100.00;101540.78;5201757;28;20040;-74
2024/01/13 01:04:31;;;;;;;18.10;9.20;;;;;;;2.92;100.00;101539.94;5201370;28;20479;-74
2024/01/13 01:07:01;;;;;;;19.20;8.55;;;;;;;2.98;100.00;101529.66;5200056;28;20029;-74
2024/01/13 01:09:31;;;;;;;18.73;9.13;;;;;;;2.95;100.00;101534.81;5204959;28;20522;-73
2024/01/13 01:12:02;;;;;;;20.58;8.70;;;;;;;2.94;100.00;101531.38;5203787;28;20021;-74
2024/01/13 01:14:32;;;;;;;22.13;10.13;;;;;;;2.88;100.00;101533.88;5204874;28;20098;-74
2024/01/13 01:17:03;;;;;;;19.27;9.27;;;;;;;2.97;100.00;101521.06;5207508;28;20041;-75
2024/01/13 01:19:33;;;;;;;19.85;9.00;;;;;;;2.89;100.00;101522.69;5199252;28;20394;-74
2024/01/13 01:22:04;;;;;;;19.35;9.63;;;;;;;2.83;100.00;101519.22;5202750;28;20033;-74
2024/01/13 01:24:34;;;;;;;20.10;9.32;;;;;;;2.82;100.00;101509.75;5208105;28;20078;-74
2024/01/13 01:27:04;;;;;;;23.45;10.10;;;;;;;2.88;100.00;101513.22;5188452;28;20037;-72
2024/01/13 01:29:35;;;;;;;20.10;9.73;;;;;;;2.95;100.00;101512.44;5201564;28;20060;-74
2024/01/13 01:32:05;;;;;;;21.67;9.95;;;;;;;2.97;100.00;101505.59;5197833;28;20083;-73
2024/01/13 01:34:35;;;;;;;22.35;9.90;;;;;;;3.02;100.00;101510.81;5197761;28;20036;-74
2024/01/13 01:37:06;;;;;;;25.00;9.75;;;;;;;2.96;100.00;101510.72;5202128;28;20043;-73
2024/01/13 01:39:36;;;;;;;23.35;10.43;;;;;;;2.98;100.00;101509.00;5192782;28;20497;-74
2024/01/13 01:42:06;;;;;;;25.30;10.80;;;;;;;3.08;100.00;101508.25;5194908;28;20037;-74
2024/01/13 01:44:36;;;;;;;25.05;11.00;;;;;;;2.99;100.00;101508.19;5190010;28;20028;-74
2024/01/13 01:47:08;;;;;;;20.88;10.10;;;;;;;2.94;100.00;101496.94;5190305;28;20514;-74
2024/01/13 01:49:39;;;;;;;24.08;11.15;;;;;;;2.93;100.00;101495.19;5206603;28;20101;-74
2024/01/13 01:52:10;;;;;;;23.23;10.60;;;;;;;2.96;100.00;101495.22;5206050;28;20083;-74
2024/01/13 01:54:42;;;;;;;22.75;10.38;;;;;;;2.95;100.00;101484.06;5205676;28;20033;-73
2024/01/13 01:57:15;;;;;;;23.08;10.45;;;;;;;3.02;100.00;101487.56;5205114;28;20402;-74
2024/01/13 01:59:45;;;;;;;22.25;10.63;;;;;;;2.89;100.00;101480.53;5205050;28;20029;-74
2024/01/13 02:02:17;;;;;;;24.83;11.05;;;;;;;2.94;100.00;101468.53;5203725;28;20051;-74
2024/01/13 02:04:47;;;;;;;23.13;10.50;;;;;;;2.95;100.00;101470.25;5211029;28;20040;-73
2024/01/13 02:07:18;;;;;;;24.27;11.10;;;;;;;2.94;100.00;101471.13;5211058;28;20518;-74
2024/01/13 02:09:49;;;;;;;23.67;10.18;;;;;;;3.07;100.00;101466.09;5212137;28;20033;-73
2024/01/13 02:12:19;;;;;;;25.30;10.70;;;;;;;3.01;100.00;101465.19;5211293;28;20025;-74
2024/01/13 02:14:50;;;;;;;25.80;10.90;;;;;;;3.05;100.00;101466.94;5208465;28;20398;-74
2024/01/13 02:17:22;;;;;;;24.00;10.55;;;;;;;2.97;100.00;101463.41;5206260;28;20034;-74
2024/01/13 02:19:52;;;;;;;23.75;10.48;;;;;;;3.02;100.00;101457.44;5206051;28;20148;-74
2024/01/13 02:22:22;;;;;;;26.98;11.77;;;;;;;2.94;100.00;101448.78;5201186;28;20109;-74
2024/01/13 02:24:53;;;;;;;24.65;10.93;;;;;;;2.94;100.00;101442.72;5211501;28;20170;-74
2024/01/13 02:27:23;;;;;;;21.73;10.82;;;;;;;2.92;100.00;101440.16;5210887;28;20030;-74
2024/01/13 02:29:54;;;;;;;24.98;11.77;;;;;;;2.93;100.00;101439.28;5206439;28;20168;-74
2024/01/13 02:32:25;;;;;;;23.38;11.35;;;;;;;2.90;100.00;101431.53;5207039;28;20112;-74
2024/01/13 02:34:55;;;;;;;26.95;11.98;;;;;;;2.95;100.00;101435.00;5204716;28;20029;-75
2024/01/13 02:37:25;;;;;;;22.92;11.63;;;;;;;3.01;100.00;101429.88;5204032;28;20029;-74
2024/01/13 02:39:56;;;;;;;25.98;11.35;;;;;;;3.01;100.00;101429.88;5189713;28;20060;-74
2024/01/13 02:42:26;;;;;;;26.13;12.68;;;;;;;2.96;100.00;101416.09;5204599;28;20041;-74
2024/01/13 02:44:56;;;;;;;27.80;11.70;;;;;;;2.89;100.00;101418.59;5210659;28;20029;-74
2024/01/13 02:47:43;;;;;;;26.73;11.30;;;;;;;2.91;100.00;101414.31;5213146;28;20414;-74
2024/01/13 02:50:14;;;;;;;23.33;11.25;;;;;;;2.98;100.00;101418.66;5204362;28;20052;-74
2024/01/13 02:52:47;;;;;;;23.73;11.18;;;;;;;2.90;100.00;101415.16;5205986;28;20055;-74
2024/01/13 02:55:17;;;;;;;22.75;10.98;;;;;;;2.91;100.00;101416.88;5203956;28;20033;-74
2024/01/13 02:57:47;;;;;;;24.27;10.90;;;;;;;2.97;100.00;101406.59;5201343;28;20021;-73
2024/01/13 03:00:18;;;;;;;24.15;11.20;;;;;;;2.99;100.00;101392.03;5195870;28;20029;-74
2024/01/13 03:02:48;;;;;;;25.08;10.70;;;;;;;2.89;100.00;101391.06;5200460;28;20095;-73
2024/01/13 03:05:18;;;;;;;23.85;10.60;;;;;;;2.96;100.00;101385.09;5192862;28;20034;-74
2024/01/13 03:07:49;;;;;;;21.23;9.73;;;;;;;2.89;100.00;101387.63;5195323;28;20077;-74
2024/01/13 03:10:19;;;;;;;21.80;10.93;;;;;;;2.89;100.00;101387.63;5194884;28;20234;-75
2024/01/13 03:12:49;;;;;;;19.60;10.38;;;;;;;3.01;100.00;101380.84;5198895;28;20109;-74
2024/01/13 03:15:19;;;;;;;19.13;9.32;;;;;;;2.93;100.00;101371.31;5201686;28;20083;-75
2024/01/13 03:17:50;;;;;;;18.58;9.43;;;;;;;2.88;100.00;101371.25;5195783;28;20091;-75
2024/01/13 03:20:20;;;;;;;20.38;9.60;;;;;;;2.88;100.00;101367.84;5198923;28;20060;-75
2024/01/13 03:22:50;;;;;;;19.38;9.38;;;;;;;2.81;100.00;101377.25;5193298;28;20373;-75
2024/01/13 03:25:21;;;;;;;17.90;8.77;;;;;;;2.91;100.00;101370.44;5201272;28;20040;-74
2024/01/13 03:27:51;;;;;;;20.13;8.80;;;;;;;2.90;100.00;101358.38;5198723;28;20036;-74
2024/01/13 03:30:21;;;;;;;17.33;8.18;;;;;;;2.84;100.00;101354.03;5199139;28;20128;-74
2024/01/13 03:32:51;;;;;;;16.88;8.18;;;;;;;2.96;100.00;101348.09;5201499;28;20030;-73
2024/01/13 03:35:22;;;;;;;15.73;7.22;;;;;;;2.98;100.00;101356.72;5199874;28;20025;-74
2024/01/13 03:37:52;;;;;;;13.27;6.93;;;;;;;2.88;100.00;101355.78;5208069;28;20703;-73
2024/01/13 03:40:23;;;;;;;16.52;7.45;;;;;;;2.86;100.00;101348.91;5198642;28;20235;-74
2024/01/13 03:42:53;;;;;;;14.15;6.65;;;;;;;2.83;100.00;101341.13;5203616;28;20034;-74
2024/01/13 03:45:23;;;;;;;14.27;6.75;;;;;;;2.90;100.00;101348.06;5209043;28;20030;-74
2024/01/13 03:47:53;;;;;;;13.48;6.20;;;;;;;2.85;100.00;101340.28;5201082;28;20175;-74
2024/01/13 03:50:24;;;;;;;12.00;5.90;;;;;;;2.94;100.00;101339.47;5202363;28;20032;-74
2024/01/13 03:52:54;;;;;;;13.52;6.03;;;;;;;2.82;100.00;101339.41;5200623;28;20698;-74
2024/01/13 03:55:24;;;;;;;11.73;5.28;;;;;;;2.92;100.00;101333.44;5199678;28;20038;-75
2024/01/13 03:57:55;;;;;;;11.02;5.53;;;;;;;2.95;100.00;101346.38;5204723;28;20028;-74
2024/01/13 04:00:25;;;;;;;14.15;5.72;;;;;;;2.86;100.00;101352.31;5199007;28;20024;-74
2024/01/13 04:02:56;;;;;;;10.27;5.30;;;;;;;2.84;100.00;101337.69;5200910;28;20044;-74
2024/01/13 04:05:26;;;;;;;9.68;4.50;;;;;;;2.89;100.00;101344.59;5204266;28;20449;-74
2024/01/13 04:07:56;;;;;;;8.20;4.75;;;;;;;2.98;100.00;101346.38;5201583;28;20280;-74
2024/01/13 04:10:27;;;;;;;9.40;4.10;;;;;;;2.93;100.00;101348.06;5202929;28;20479;-74
2024/01/13 04:12:57;;;;;;;9.40;4.03;;;;;;;3.02;100.00;101343.00;5198999;28;20020;-74
2024/01/13 04:15:27;;;;;;;7.05;3.78;;;;;;;2.89;100.00;101342.00;5200606;28;20017;-74
2024/01/13 04:17:58;;;;;;;8.98;3.97;;;;;;;2.97;100.00;101340.38;5203662;28;20064;-74
2024/01/13 04:20:28;;;;;;;9.50;3.58;;;;;;;2.91;100.00;101339.47;5199301;28;20039;-75
2024/01/13 04:22:58;;;;;;;6.57;3.30;;;;;;;2.95;100.00;101342.06;5206270;28;20052;-74
2024/01/13 04:25:29;;;;;;;8.00;3.85;;;;;;;2.93;100.00;101330.00;5207961;28;20033;-73
2024/01/13 04:28:01;;;;;;;8.52;3.67;;;;;;;2.95;100.00;101328.28;5205212;28;20036;-74
2024/01/13 04:30:31;;;;;;;8.52;4.13;;;;;;;2.99;100.00;101335.22;5202679;28;20115;-74
2024/01/13 04:33:02;;;;;;;7.65;4.25;;;;;;;2.93;100.00;101327.41;5202929;28;20057;-73
2024/01/13 04:35:32;;;;;;;7.90;4.25;;;;;;;2.99;100.00;101324.91;5201775;28;20029;-75
2024/01/13 04:38:03;;;;;;;6.78;3.65;;;;;;;2.82;100.00;101323.91;5202492;28;20255;-74
2024/01/13 04:40:36;;;;;;;8.48;4.40;;;;;;;2.88;100.00;101319.63;5199811;28;20508;-74
2024/01/13 04:43:07;;;;;;;7.75;3.90;;;;;;;2.81;100.00;101317.00;5200472;28;20037;-74
2024/01/13 04:45:37;;;;;;;8.98;4.18;;;;;;;2.93;100.00;101317.09;5205964;28;20091;-74
2024/01/13 04:48:07;;;;;;;8.10;3.92;;;;;;;2.99;100.00;101312.00;5203617;28;20045;-74
2024/01/13 04:50:37;;;;;;;8.35;4.00;;;;;;;3.06;100.00;101311.16;5201602;28;20033;-74
2024/01/13 04:53:08;;;;;;;6.18;3.33;;;;;;;3.10;100.00;101306.03;5200572;28;20878;-74
2024/01/13 04:55:38;;;;;;;5.38;2.72;;;;;;;3.04;100.00;101305.97;5196661;28;20022;-74
2024/01/13 04:58:09;;;;;;;6.13;3.33;;;;;;;3.09;100.00;101312.06;5200174;28;20037;-75
2024/01/13 05:00:40;;;;;;;5.43;3.20;;;;;;;3.06;100.00;101300.84;5194729;28;20498;-73
2024/01/13 05:03:10;;;;;;;7.70;3.45;;;;;;;2.94;100.00;101298.19;5205120;28;20183;-74
2024/01/13 05:05:40;;;;;;;6.30;2.97;;;;;;;3.00;100.00;101293.06;5207882;28;20449;-74
2024/01/13 05:08:11;;;;;;;5.55;3.03;;;;;;;2.99;100.00;101296.50;5203534;28;20025;-75
2024/01/13 05:10:41;;;;;;;6.32;2.97;;;;;;;2.87;100.00;101299.00;5200644;28;20036;-75
2024/01/13 05:13:12;;;;;;;7.38;2.85;;;;;;;2.92;100.00;101289.56;5199812;28;20017;-75
2024/01/13 05:15:42;;;;;;;5.03;2.55;;;;;;;2.86;100.00;101289.53;5199445;28;20033;-74
2024/01/13 05:18:12;;;;;;;5.80;3.00;;;;;;;2.89;100.00;101285.22;5198979;28;20041;-74
2024/01/13 05:20:43;;;;;;;5.50;2.67;;;;;;;2.85;100.00;101277.47;5205010;28;20406;-74
2024/01/13 05:23:13;;;;;;;5.97;2.70;;;;;;;2.87;100.00;101280.94;5206412;28;20045;-74
2024/01/13 05:25:43;;;;;;;5.15;2.65;;;;;;;2.93;100.00;101280.97;5202756;28;20113;-74
2024/01/13 05:28:13;;;;;;;6.03;2.60;;;;;;;2.89;100.00;101274.06;5206126;28;20444;-74
2024/01/13 05:30:44;;;;;;;4.18;2.50;;;;;;;2.96;100.00;101281.84;5200277;28;20033;-74
2024/01/13 05:33:14;;;;;;;4.57;2.55;;;;;;;2.93;100.00;101284.41;5201217;28;20020;-75
2024/01/13 05:35:44;;;;;;;5.30;2.70;;;;;;;2.96;100.00;101280.97;5196161;28;20029;-74
2024/01/13 05:38:15;;;;;;;5.18;2.78;;;;;;;2.94;100.00;101283.56;5201264;28;20406;-74
2024/01/13 05:40:45;;;;;;;4.13;2.42;;;;;;;2.92;100.00;101284.41;5204652;28;20037;-74
2024/01/13 05:43:15;;;;;;;5.97;2.67;;;;;;;3.02;100.00;101287.03;5204216;28;20472;-74
2024/01/13 05:45:46;;;;;;;5.35;3.15;;;;;;;3.03;100.00;101280.19;5205255;28;20022;-74
2024/01/13 05:48:16;;;;;;;5.75;3.10;;;;;;;2.97;100.00;101283.59;5203931;28;20035;-74
2024/01/13 05:50:46;;;;;;;5.05;2.97;;;;;;;2.97;100.00;101277.53;5202307;28;20032;-74
2024/01/13 05:53:17;;;;;;;6.63;3.50;;;;;;;2.85;100.00;101275.75;5204758;28;20021;-74
2024/01/13 05:55:47;;;;;;;5.85;3.28;;;;;;;3.00;100.00;101269.84;5198905;28;20459;-74
2024/01/13 05:58:17;;;;;;;7.78;2.90;;;;;;;2.90;100.00;101268.03;5203153;28;20156;-74
2024/01/13 06:00:47;;;;;;;6.93;3.50;;;;;;;2.82;100.00;101259.41;5203926;28;20024;-74
2024/01/13 06:03:19;;;;;;;7.95;3.28;;;;;;;2.89;100.00;101254.25;5202814;28;20056;-75
2024/01/13 06:05:49;;;;;;;4.70;2.88;;;;;;;2.89;100.00;101245.66;5199358;28;20086;-74
2024/01/13 06:08:19;;;;;;;3.75;2.22;;;;;;;2.91;100.00;101246.53;5204022;28;20478;-74
2024/01/13 06:10:50;;;;;;;6.47;2.65;;;;;;;2.86;100.00;101250.81;5203159;28;20033;-74
2024/01/13 06:13:21;;;;;;;4.63;2.65;;;;;;;2.81;100.00;101245.63;5205981;28;20066;-74
2024/01/13 06:15:51;;;;;;;4.80;2.50;;;;;;;2.80;100.00;101243.91;5205682;28;20104;-74
2024/01/13 06:18:21;;;;;;;4.57;2.35;;;;;;;2.80;100.00;101246.47;5205463;28;20120;-74
2024/01/13 06:20:52;;;;;;;7.22;3.85;;;;;;;2.81;100.00;101245.63;5204710;28;20029;-74
2024/01/13 06:23:22;;;;;;;5.85;2.95;;;;;;;2.89;100.00;101243.09;5203811;28;20021;-74
2024/01/13 06:25:52;;;;;;;5.95;2.95;;;;;;;2.88;100.00;101249.94;5207627;28;20144;-75
2024/01/13 06:28:22;;;;;;;5.18;2.83;;;;;;;2.79;100.00;101251.63;5205080;28;20449;-75
2024/01/13 06:30:53;;;;;;;5.95;3.30;;;;;;;2.80;100.00;101237.84;5204910;28;20035;-74
2024/01/13 06:33:24;;;;;;;11.88;3.08;;;;;;;2.77;100.00;101237.84;5204761;28;20033;-74
2024/01/13 06:35:54;;;;;;;4.68;2.67;;;;;;;2.81;100.00;101239.59;5203025;28;20128;-74
2024/01/13 06:38:24;;;;;;;5.60;2.95;;;;;;;2.87;100.00;101231.91;5207800;28;20064;-75
2024/01/13 06:40:55;;;;;;;7.70;2.95;;;;;;;2.85;100.00;101223.28;5203861;28;20394;-74
2024/01/13 06:43:25;;;;;;;7.15;3.15;;;;;;;2.76;100.00;101215.47;5199936;28;20032;-74
2024/01/13 06:45:55;;;;;;;4.60;2.67;;;;;;;2.79;100.00;101223.22;5204767;28;20033;-75
2024/01/13 06:48:25;;;;;;;7.97;2.80;;;;;;;2.70;100.00;101210.28;5207551;28;20282;-75
2024/01/13 06:50:56;;;;;;;5.20;2.78;;;;;;;2.67;100.00;101215.44;5207767;28;20025;-75
2024/01/13 06:53:26;;;;;;;6.53;3.25;;;;;;;2.75;100.00;101199.16;5205946;28;20029;-74
2024/01/13 06:55:56;;;;;;;6.55;3.25;;;;;;;2.72;100.00;101198.25;5206384;28;20402;-73
2024/01/13 06:58:27;;;;;;;5.65;3.17;;;;;;;2.71;100.00;101199.09;5197708;28;20033;-74
2024/01/13 07:00:58;;;;;;;4.75;2.65;;;;;;;2.72;100.00;101193.94;5200929;28;20371;-74
2024/01/13 07:03:28;;;;;;;4.95;2.50;;;;;;;2.68;100.00;101181.88;5193224;28;20034;-75
2024/01/13 07:05:58;;;;;;;5.30;2.65;;;;;;;2.78;100.00;101178.50;5202893;28;20025;-75
2024/01/13 07:08:29;;;;;;;5.55;2.60;;;;;;;2.80;100.00;101174.22;5214563;28;20551;-73
2024/01/13 07:10:59;;;;;;;4.13;2.58;;;;;;;2.67;100.00;101169.00;5211908;28;20585;-74
2024/01/13 07:13:30;;;;;;;4.00;2.60;;;;;;;2.78;100.00;101167.31;5205954;28;20111;-73
2024/01/13 07:16:00;;;;;;;6.47;3.05;;;;;;;2.86;100.00;101166.50;5214438;28;20313;-74
2024/01/13 07:18:30;;;;;;;7.88;2.75;;;;;;;2.89;100.00;101157.91;5204327;28;20518;-73
2024/01/13 07:21:01;;;;;;;6.28;3.17;;;;;;;2.94;100.00;101140.72;5209714;28;20049;-74
2024/01/13 07:23:32;;;;;;;5.15;2.90;;;;;;;2.86;100.00;101143.25;5213766;28;20029;-73
2024/01/13 07:26:02;;;;;;;7.07;2.70;;;;;;;2.88;100.00;101130.38;5210883;28;20567;-74
2024/01/13 07:28:32;;;;;;;5.65;2.55;;;;;;;2.79;100.00;101141.53;5206527;28;20060;-75
2024/01/13 07:31:03;;;;;;;4.40;2.63;;;;;;;2.78;100.00;101131.19;5206611;28;20025;-74
2024/01/13 07:33:33;;;;;;;7.75;2.78;;;;;;;2.77;100.00;101119.16;5201861;28;20021;-74
2024/01/13 07:36:04;;;;;;;4.82;2.58;;;;;;;2.80;100.00;101119.16;5210296;28;20024;-74
2024/01/13 07:38:35;;;;;;;5.68;2.70;;;;;;;2.80;100.00;101103.66;5204156;28;20029;-74
2024/01/13 07:41:07;;;;;;;7.25;2.53;;;;;;;2.75;100.00;101100.22;5212655;28;20060;-77
2024/01/13 07:43:37;;;;;;;4.85;2.65;;;;;;;2.68;100.00;101090.75;5210528;28;20418;-77
2024/01/13 07:46:08;;;;;;;4.82;2.75;;;;;;;2.74;100.00;101090.75;5205776;28;20039;-74
2024/01/13 07:48:39;;;;;;;3.90;2.25;;;;;;;2.71;100.00;101088.16;5208920;28;20510;-76
2024/01/13 07:51:09;;;;;;;4.70;2.25;;;;;;;2.78;100.00;101100.22;5204877;28;20021;-76
2024/01/13 07:53:39;;;;;;;3.90;2.10;;;;;;;2.79;100.00;101101.94;5205587;28;20056;-76
2024/01/13 07:56:10;;;;;;;9.30;3.92;;;;;;;2.87;100.00;101095.94;5199560;28;20033;-77
2024/01/13 07:58:41;;;;;;;3.20;1.80;;;;;;;2.80;100.00;101094.22;5205768;28;20104;-77
2024/01/13 08:01:11;;;;;;;5.25;2.13;;;;;;;2.81;100.00;101088.19;5205043;28;20119;-76
2024/01/13 08:03:41;;;;;;;8.48;3.53;;;;;;;2.85;100.00;101102.00;5208576;28;20041;-75
2024/01/13 08:06:13;;;;;;;8.68;4.55;;;;;;;2.87;100.00;101120.91;5209338;28;20513;-76
2024/01/13 08:08:43;;;;;;;5.35;3.22;;;;;;;2.86;100.00;101108.88;5213663;28;20033;-75
2024/01/13 08:11:13;;;;;;;4.80;2.65;;;;;;;2.96;100.00;101115.78;5212774;28;20090;-75
2024/01/13 08:13:44;;;;;;;3.95;1.95;;;;;;;2.82;100.00;101112.31;5207899;28;20029;-76
2024/01/13 08:16:14;;;;;;;3.65;1.88;;;;;;;3.08;100.00;101101.22;5202039;28;20117;-75
2024/01/13 08:18:44;;;;;;;3.08;1.77;;;;;;;3.06;100.00;101096.88;5206796;28;20029;-75
2024/01/13 08:21:15;;;;;;;3.47;1.92;;;;;;;2.95;100.00;101094.28;5200110;28;20124;-75
2024/01/13 08:23:45;;;;;;;3.10;1.98;;;;;;;3.09;100.00;101091.72;5203201;28;20033;-75
2024/01/13 08:26:15;;;;;;;2.90;1.80;;;;;;;3.08;100.00;101084.84;5207381;28;20025;-75
2024/01/13 08:28:46;;;;;;;2.42;1.65;;;;;;;3.01;100.00;101093.44;5203819;28;20033;-75
2024/01/13 08:31:16;;;;;;;2.88;1.88;;;;;;;2.94;100.00;101086.50;5207183;28;20421;-75
2024/01/13 08:33:46;;;;;;;2.80;1.70;;;;;;;2.88;100.00;101076.19;5202631;28;20021;-75
2024/01/13 08:36:18;;;;;;;3.20;1.73;;;;;;;2.83;100.00;101085.63;5205428;28;20049;-75
2024/01/13 08:38:48;;;;;;;3.63;1.67;;;;;;;2.91;100.00;101076.19;5203093;28;20117;-75
2024/01/13 08:41:19;;;;;;;2.50;1.60;;;;;;;2.86;100.00;101072.75;5206687;28;20100;-75
2024/01/13 08:43:49;;;;;;;3.25;1.30;;;;;;;2.87;100.00;101079.63;5206429;28;20022;-74
2024/01/13 08:46:19;;;;;;;3.50;2.00;;;;;;;2.94;100.00;101060.72;5208645;28;20291;-75
2024/01/13 08:48:49;;;;;;;3.75;1.77;;;;;;;2.82;100.00;101065.84;5206372;28;20029;-75
2024/01/13 08:51:20;;;;;;;2.55;1.50;;;;;;;2.82;100.00;101069.28;5208992;28;20032;-75
2024/01/13 08:53:50;;;;;;;3.08;1.77;;;;;;;2.83;100.00;101068.41;5205572;28;20032;-75
2024/01/13 08:56:20;;;;;;;2.60;1.73;;;;;;;2.82;100.00;101071.88;5204284;28;20032;-75
2024/01/13 08:58:51;;;;;;;3.45;1.88;;;;;;;2.90;100.00;101069.31;5197459;28;20168;-75
2024/01/13 09:01:21;;;;;;;5.18;1.75;;;;;;;2.87;100.00;101069.31;5207062;28;20041;-74
2024/01/13 09:03:51;;;;;;;4.95;2.00;;;;;;;2.78;100.00;101080.47;5196535;28;20552;-75
2024/01/13 09:06:22;;;;;;;3.10;1.67;;;;;;;2.90;100.00;101074.47;5196899;28;20049;-75
2024/01/13 09:08:52;;;;;;;2.60;1.60;;;;;;;2.86;100.00;101065.84;5201416;28;20079;-74
2024/01/13 09:11:23;;;;;;;2.40;1.50;;;;;;;2.93;100.00;101059.00;5204455;28;20529;-75
2024/01/13 09:13:53;;;;;;;2.85;1.40;;;;;;;2.95;100.00;101057.25;5192980;28;20316;-74
2024/01/13 09:16:23;;;;;;;3.00;1.75;;;;;;;2.93;100.00;101048.66;5193505;28;20044;-75
2024/01/13 09:18:54;;;;;;;2.65;1.60;;;;;;;2.93;100.00;101034.06;5198335;28;20390;-74
2024/01/13 09:21:24;;;;;;;5.93;1.60;;;;;;;2.95;100.00;101013.38;5195069;28;20042;-74
2024/01/13 09:23:55;;;;;;;3.13;1.80;;;;;;;3.06;100.00;101019.44;5202162;28;20091;-75
2024/01/13 09:26:25;;;;;;;7.72;2.70;;;;;;;3.04;100.00;101001.34;5206490;28;20094;-76
2024/01/13 09:28:56;;;;;;;6.18;2.47;;;;;;;3.06;100.00;101032.34;5205384;28;20502;-75
2024/01/13 09:31:26;;;;;;;7.13;2.53;;;;;;;3.23;100.00;101013.41;5207608;28;20095;-75
2024/01/13 09:33:56;;;;;;;3.65;1.95;;;;;;;3.22;100.00;101018.59;5197460;28;20064;-75
2024/01/13 09:36:27;;;;;;;3.75;1.70;;;;;;;3.37;100.00;100998.81;5206476;28;20178;-75
2024/01/13 09:38:58;;;;;;;4.35;1.75;;;;;;;3.35;100.00;100997.09;5202832;28;20513;-75
2024/01/13 09:41:29;;;;;;;3.80;1.92;;;;;;;3.34;100.00;101003.13;5207206;28;20029;-75
2024/01/13 09:44:13;;;;;;;2.80;1.67;;;;;;;3.33;100.00;101007.41;5204376;28;20036;-75
2024/01/13 09:49:17;;;;;;;2.90;1.55;;;;;;;3.43;100.00;101005.69;5162953;28;20061;-77
2024/01/13 09:51:48;;;;;;;4.80;1.75;;;;;;;3.40;100.00;101016.03;5162467;28;20029;-77
2024/01/13 09:54:23;;;;;;;4.53;2.00;;;;;;;3.30;100.00;101010.00;5164234;28;20466;-77
2024/01/13 09:56:55;;;;;;;5.03;2.05;;;;;;;3.36;100.00;101010.00;5164010;28;20909;-77
2024/01/13 09:59:28;;;;;;;5.35;2.20;;;;;;;3.35;100.00;101018.59;5146305;28;20069;-77
2024/01/13 10:01:59;;;;;;;3.20;1.92;;;;;;;3.36;100.00;101014.31;5145784;28;20078;-77
2024/01/13 10:04:30;;;;;;;4.05;2.22;;;;;;;3.40;100.00;101013.44;5146977;28;20069;-77
2024/01/13 10:07:00;;;;;;;3.90;2.50;;;;;;;3.27;100.00;101016.88;5147217;28;20404;-77
2024/01/13 10:09:30;;;;;;;5.05;2.28;;;;;;;3.38;100.00;101012.59;5148844;28;20046;-77
2024/01/13 10:12:08;;;;;;;5.82;2.50;;;;;;;3.32;100.00;101017.72;5144796;28;20465;-77
2024/01/13 10:14:42;;;;;;;4.47;2.60;;;;;;;3.36;100.00;101006.56;5147885;28;20566;-77
2024/01/13 10:17:12;;;;;;;5.20;3.05;;;;;;;3.39;100.00;101010.00;5144181;28;20047;-77
2024/01/13 10:19:42;;;;;;;5.55;2.63;;;;;;;3.37;100.00;101001.38;5143784;28;20101;-77
2024/01/13 10:22:15;;;;;;;4.93;2.88;;;;;;;3.31;100.00;101003.97;5143785;28;20031;-77
2024/01/13 10:24:48;;;;;;;5.50;3.08;;;;;;;3.43;100.00;101001.41;5148077;28;20161;-77
2024/01/13 10:27:20;;;;;;;5.38;3.17;;;;;;;3.46;100.00;101006.56;5142730;28;20019;-77
2024/01/13 10:29:50;;;;;;;6.60;3.70;;;;;;;3.46;100.00;100998.81;5138790;28;20279;-78
2024/01/13 10:32:21;;;;;;;5.93;3.47;;;;;;;3.68;100.00;100993.63;5144645;28;20423;-77
2024/01/13 10:34:53;;;;;;;6.60;3.95;;;;;;;3.68;100.00;100983.28;5144668;28;20207;-76
2024/01/13 10:37:25;;;;;;;7.28;4.03;;;;;;;3.64;100.00;100972.97;5148690;28;20105;-77
2024/01/13 10:39:56;;;;;;;6.90;4.10;;;;;;;3.64;100.00;100966.06;5140928;28;20145;-77
2024/01/13 10:42:36;;;;;;;9.40;4.93;;;;;;;3.72;100.00;100948.81;5146287;28;20407;-77
2024/01/13 10:45:09;;;;;;;7.15;4.50;;;;;;;3.89;100.00;100941.00;5145880;28;20035;-77
2024/01/13 10:47:45;;;;;;;7.38;4.20;;;;;;;4.11;100.00;100929.75;5146378;28;20045;-77
2024/01/13 10:50:16;;;;;;;8.05;4.10;;;;;;;4.13;100.00;100923.69;5140259;28;20411;-76
2024/01/13 10:52:57;;;;;;;8.80;4.57;;;;;;;4.22;100.00;100920.19;5139805;28;20026;-76
2024/01/13 10:55:29;;;;;;;7.97;4.40;;;;;;;4.30;100.00;100929.66;5144141;28;20038;-77
2024/01/13 10:58:01;;;;;;;8.18;4.57;;;;;;;4.23;100.00;100922.78;5143519;28;20050;-77
2024/01/13 11:00:33;;;;;;;8.25;4.47;;;;;;;4.15;100.00;100924.53;5146878;28;20030;-76
2024/01/13 11:03:04;;;;;;;8.93;4.10;;;;;;;4.22;100.00;100909.84;5141168;28;20051;-76
2024/01/13 11:05:37;;;;;;;7.45;4.38;;;;;;;4.26;100.00;100903.81;5145262;28;20492;-76
2024/01/13 11:08:07;;;;;;;10.02;4.55;;;;;;;4.37;100.00;100895.13;5140666;28;20047;-75
2024/01/13 11:10:42;;;;;;;7.60;4.20;;;;;;;4.33;100.00;100896.00;5146513;28;20029;-77
2024/01/13 11:13:37;;;;;;;8.35;4.90;;;;;;;4.29;100.00;100878.78;5147672;28;20565;-77
2024/01/13 11:16:14;;;;;;;10.10;4.85;;;;;;;4.28;100.00;100878.81;5144433;28;20034;-77
2024/01/13 11:18:50;;;;;;;10.23;4.47;;;;;;;4.10;100.00;100869.41;5143082;28;20046;-77
2024/01/13 11:21:28;;;;;;;8.90;4.28;;;;;;;4.13;100.00;100859.03;5141449;28;20523;-76
2024/01/13 11:24:12;;;;;;;8.85;4.63;;;;;;;4.13;100.00;100845.28;5141495;28;20047;-77
2024/01/13 11:26:50;;;;;;;8.90;4.60;;;;;;;4.11;100.00;100826.31;5145385;28;20053;-76
2024/01/13 11:29:24;;;;;;;8.00;4.40;;;;;;;4.24;100.00;100826.22;5146798;28;20042;-77
2024/01/13 11:31:59;;;;;;;9.23;4.68;;;;;;;4.22;100.00;100809.88;5145675;28;20034;-76
2024/01/13 11:34:29;;;;;;;6.53;3.90;;;;;;;4.18;100.00;100808.19;5145422;28;20397;-76
2024/01/13 11:36:59;;;;;;;9.60;4.88;;;;;;;4.27;100.00;100804.66;5140064;28;20448;-77
2024/01/13 11:39:30;;;;;;;8.90;4.63;;;;;;;4.24;100.00;100802.94;5140802;28;20053;-77
2024/01/13 11:42:03;;;;;;;8.20;4.95;;;;;;;4.28;100.00;100808.97;5145594;28;20122;-77